createdAt,value
2018-08-11T00:00:18.470Z,16.20
2018-08-11T00:00:52.372Z,16.20
2018-08-11T00:01:26.289Z,16.20
2018-08-11T00:02:00.590Z,16.20
2018-08-11T00:02:34.449Z,16.20
2018-08-11T00:03:08.325Z,16.20
2018-08-11T00:03:42.626Z,16.20
2018-08-11T00:04:16.537Z,16.20
2018-08-11T00:04:50.537Z,16.20
2018-08-11T00:05:24.427Z,16.20
2018-08-11T00:05:58.683Z,16.20
2018-08-11T00:06:33.061Z,16.10
2018-08-11T00:07:07.253Z,16.20
2018-08-11T00:07:44.485Z,16.10
2018-08-11T00:08:18.497Z,16.10
2018-08-11T00:08:52.507Z,16.10
2018-08-11T00:09:28.665Z,16.10
2018-08-11T00:10:02.890Z,16.10
2018-08-11T00:10:37.327Z,16.10
2018-08-11T00:11:11.168Z,16.10
2018-08-11T00:11:45.095Z,16.10
2018-08-11T00:12:19.005Z,16.10
2018-08-11T00:12:53.237Z,16.10
2018-08-11T00:13:27.470Z,16.00
2018-08-11T00:14:01.385Z,16.00
2018-08-11T00:14:35.791Z,16.00
2018-08-11T00:15:11.971Z,16.00
2018-08-11T00:15:50.992Z,16.00
2018-08-11T00:16:27.406Z,16.00
2018-08-11T00:17:01.317Z,16.00
2018-08-11T00:17:36.167Z,16.00
2018-08-11T00:18:12.245Z,16.00
2018-08-11T00:18:46.229Z,16.00
2018-08-11T00:19:20.103Z,16.00
2018-08-11T00:19:56.535Z,16.00
2018-08-11T00:20:30.549Z,16.00
2018-08-11T00:21:05.197Z,15.90
2018-08-11T00:21:40.243Z,15.90
2018-08-11T00:22:14.217Z,15.90
2018-08-11T00:22:51.657Z,15.90
2018-08-11T00:23:25.697Z,15.90
2018-08-11T00:23:59.603Z,15.90
2018-08-11T00:24:33.504Z,15.90
2018-08-11T00:25:08.195Z,15.90
2018-08-11T00:25:42.145Z,15.90
2018-08-11T00:26:16.013Z,15.90
2018-08-11T00:26:51.767Z,15.90
2018-08-11T00:27:29.874Z,15.90
2018-08-11T00:28:03.729Z,15.90
2018-08-11T00:28:37.610Z,15.80
2018-08-11T00:29:11.489Z,15.80
2018-08-11T00:29:45.364Z,15.80
2018-08-11T00:30:20.395Z,15.80
2018-08-11T00:30:54.281Z,15.80
2018-08-11T00:31:28.791Z,15.80
2018-08-11T00:32:02.732Z,15.80
2018-08-11T00:32:36.967Z,15.80
2018-08-11T00:33:10.825Z,15.80
2018-08-11T00:33:44.807Z,15.80
2018-08-11T00:34:18.973Z,15.80
2018-08-11T00:34:53.261Z,15.80
2018-08-11T00:35:27.093Z,15.70
2018-08-11T00:36:00.992Z,15.70
2018-08-11T00:36:34.985Z,15.70
2018-08-11T00:37:09.315Z,15.70
2018-08-11T00:37:43.710Z,15.70
2018-08-11T00:38:17.931Z,15.70
2018-08-11T00:38:52.141Z,15.70
2018-08-11T00:39:26.350Z,15.70
2018-08-11T00:40:00.597Z,15.70
2018-08-11T00:40:34.764Z,15.70
2018-08-11T00:41:08.671Z,15.70
2018-08-11T00:41:42.969Z,15.70
2018-08-11T00:42:16.840Z,15.70
2018-08-11T00:42:51.375Z,15.70
2018-08-11T00:43:25.615Z,15.70
2018-08-11T00:43:59.816Z,15.70
2018-08-11T00:44:33.681Z,15.70
2018-08-11T00:45:09.467Z,15.60
2018-08-11T00:45:43.350Z,15.60
2018-08-11T00:46:17.613Z,15.60
2018-08-11T00:46:51.511Z,15.60
2018-08-11T00:47:25.715Z,15.60
2018-08-11T00:47:59.918Z,15.60
2018-08-11T00:48:33.849Z,15.60
2018-08-11T00:49:08.046Z,15.60
2018-08-11T00:49:41.942Z,15.60
2018-08-11T00:50:30.185Z,15.60
2018-08-11T00:51:04.428Z,15.60
2018-08-11T00:51:38.333Z,15.60
2018-08-11T00:52:12.211Z,15.60
2018-08-11T00:52:46.092Z,15.60
2018-08-11T00:53:19.983Z,15.60
2018-08-11T00:53:53.870Z,15.60
2018-08-11T00:54:27.782Z,15.60
2018-08-11T00:55:01.995Z,15.60
2018-08-11T00:55:35.881Z,15.60
2018-08-11T00:56:10.249Z,15.60
2018-08-11T00:56:44.154Z,15.60
2018-08-11T00:57:18.349Z,15.60
2018-08-11T00:57:52.629Z,15.60
2018-08-11T00:58:26.503Z,15.60
2018-08-11T00:59:00.379Z,15.60
2018-08-11T00:59:34.849Z,15.60
2018-08-11T01:00:14.811Z,15.60
2018-08-11T01:00:48.725Z,15.60
2018-08-11T01:01:22.561Z,15.60
2018-08-11T01:01:56.902Z,15.60
2018-08-11T01:02:30.824Z,15.60
2018-08-11T01:03:04.875Z,15.60
2018-08-11T01:03:39.075Z,15.60
2018-08-11T01:04:13.265Z,15.60
2018-08-11T01:04:47.444Z,15.60
2018-08-11T01:05:22.293Z,15.60
2018-08-11T01:05:56.163Z,15.60
2018-08-11T01:06:30.149Z,15.60
2018-08-11T01:07:04.050Z,15.60
2018-08-11T01:07:39.715Z,15.60
2018-08-11T01:08:13.619Z,15.60
2018-08-11T01:08:47.505Z,15.60
2018-08-11T01:09:21.355Z,15.70
2018-08-11T01:09:55.257Z,15.70
2018-08-11T01:10:29.123Z,15.70
2018-08-11T01:11:03.024Z,15.70
2018-08-11T01:11:37.077Z,15.70
2018-08-11T01:12:11.338Z,15.70
2018-08-11T01:12:46.226Z,15.70
2018-08-11T01:13:20.997Z,15.70
2018-08-11T01:13:55.548Z,15.70
2018-08-11T01:14:30.060Z,15.70
2018-08-11T01:15:04.423Z,15.70
2018-08-11T01:15:38.319Z,15.70
2018-08-11T01:16:12.189Z,15.70
2018-08-11T01:16:46.055Z,15.70
2018-08-11T01:17:19.958Z,15.80
2018-08-11T01:17:53.855Z,15.70
2018-08-11T01:18:27.733Z,15.80
2018-08-11T01:19:01.934Z,15.80
2018-08-11T01:19:35.767Z,15.80
2018-08-11T01:20:11.433Z,15.80
2018-08-11T01:20:45.273Z,15.80
2018-08-11T01:21:19.455Z,15.80
2018-08-11T01:21:53.647Z,15.80
2018-08-11T01:22:27.901Z,15.80
2018-08-11T01:23:01.787Z,15.80
2018-08-11T01:23:35.977Z,15.80
2018-08-11T01:24:10.589Z,15.80
2018-08-11T01:24:44.470Z,15.80
2018-08-11T01:25:18.347Z,15.80
2018-08-11T01:25:52.555Z,15.80
2018-08-11T01:26:26.541Z,15.90
2018-08-11T01:27:00.424Z,15.90
2018-08-11T01:27:35.035Z,15.90
2018-08-11T01:28:09.204Z,15.90
2018-08-11T01:28:43.446Z,15.90
2018-08-11T01:29:17.796Z,15.90
2018-08-11T01:29:52.213Z,15.90
2018-08-11T01:30:26.414Z,15.90
2018-08-11T01:31:00.978Z,15.90
2018-08-11T01:31:34.837Z,15.90
2018-08-11T01:32:09.056Z,16.00
2018-08-11T01:32:43.738Z,16.00
2018-08-11T01:33:17.893Z,16.00
2018-08-11T01:33:51.895Z,16.00
2018-08-11T01:34:26.066Z,16.00
2018-08-11T01:34:59.930Z,16.10
2018-08-11T01:35:34.088Z,16.00
2018-08-11T01:36:08.288Z,16.10
2018-08-11T01:36:42.624Z,16.10
2018-08-11T01:37:17.005Z,16.10
2018-08-11T01:37:51.204Z,16.20
2018-08-11T01:38:25.139Z,16.10
2018-08-11T01:38:59.344Z,16.20
2018-08-11T01:39:33.606Z,16.20
2018-08-11T01:40:08.928Z,16.20
2018-08-11T01:40:42.794Z,16.30
2018-08-11T01:41:16.698Z,16.30
2018-08-11T01:41:50.889Z,16.20
2018-08-11T01:42:25.104Z,16.30
2018-08-11T01:42:59.372Z,16.30
2018-08-11T01:43:33.893Z,16.30
2018-08-11T01:44:07.785Z,16.30
2018-08-11T01:44:42.319Z,16.30
2018-08-11T01:45:17.051Z,16.30
2018-08-11T01:45:50.929Z,16.30
2018-08-11T01:46:25.086Z,16.30
2018-08-11T01:46:58.936Z,16.40
2018-08-11T01:47:33.138Z,16.40
2018-08-11T01:48:07.236Z,16.40
2018-08-11T01:48:41.106Z,16.40
2018-08-11T01:49:15.317Z,16.40
2018-08-11T01:49:49.544Z,16.40
2018-08-11T01:50:23.418Z,16.40
2018-08-11T01:50:57.354Z,16.40
2018-08-11T01:51:31.250Z,16.40
2018-08-11T01:52:05.168Z,16.40
2018-08-11T01:52:41.495Z,16.40
2018-08-11T01:53:15.429Z,16.40
2018-08-11T01:53:49.636Z,16.40
2018-08-11T01:54:23.820Z,16.40
2018-08-11T01:54:57.662Z,16.50
2018-08-11T01:55:31.601Z,16.50
2018-08-11T01:56:05.812Z,16.50
2018-08-11T01:56:39.986Z,16.50
2018-08-11T01:57:13.834Z,16.50
2018-08-11T01:57:47.683Z,16.50
2018-08-11T01:58:21.900Z,16.50
2018-08-11T01:58:56.074Z,16.50
2018-08-11T01:59:30.582Z,16.50
2018-08-11T02:00:07.104Z,16.50
2018-08-11T02:00:41.308Z,16.50
2018-08-11T02:01:15.490Z,16.50
2018-08-11T02:01:49.338Z,16.50
2018-08-11T02:02:23.876Z,16.50
2018-08-11T02:02:57.704Z,16.50
2018-08-11T02:03:31.978Z,16.50
2018-08-11T02:04:05.836Z,16.50
2018-08-11T02:04:40.003Z,16.50
2018-08-11T02:05:14.030Z,16.50
2018-08-11T02:05:47.918Z,16.50
2018-08-11T02:06:21.786Z,16.50
2018-08-11T02:06:55.618Z,16.50
2018-08-11T02:07:29.612Z,16.50
2018-08-11T02:08:03.529Z,16.50
2018-08-11T02:08:37.764Z,16.50
2018-08-11T02:09:11.968Z,16.50
2018-08-11T02:09:46.186Z,16.50
2018-08-11T02:10:21.236Z,16.50
2018-08-11T02:10:55.144Z,16.50
2018-08-11T02:11:29.348Z,16.50
2018-08-11T02:12:03.260Z,16.50
2018-08-11T02:12:37.120Z,16.50
2018-08-11T02:13:11.632Z,16.50
2018-08-11T02:13:45.934Z,16.50
2018-08-11T02:14:20.154Z,16.50
2018-08-11T02:14:54.362Z,16.50
2018-08-11T02:15:28.553Z,16.50
2018-08-11T02:16:02.418Z,16.50
2018-08-11T02:16:36.300Z,16.50
2018-08-11T02:17:10.153Z,16.50
2018-08-11T02:17:44.016Z,16.50
2018-08-11T02:18:17.878Z,16.50
2018-08-11T02:18:51.746Z,16.50
2018-08-11T02:19:25.582Z,16.50
2018-08-11T02:19:59.822Z,16.50
2018-08-11T02:20:33.694Z,16.60
2018-08-11T02:21:07.586Z,16.50
2018-08-11T02:21:41.428Z,16.60
2018-08-11T02:22:15.298Z,16.60
2018-08-11T02:22:49.874Z,16.60
2018-08-11T02:23:23.742Z,16.60
2018-08-11T02:23:57.623Z,16.60
2018-08-11T02:24:31.826Z,16.60
2018-08-11T02:25:06.490Z,16.60
2018-08-11T02:25:41.036Z,16.60
2018-08-11T02:26:14.953Z,16.60
2018-08-11T02:26:49.302Z,16.60
2018-08-11T02:27:23.172Z,16.60
2018-08-11T02:27:57.138Z,16.60
2018-08-11T02:28:31.274Z,16.60
2018-08-11T02:29:05.200Z,16.60
2018-08-11T02:29:39.066Z,16.60
2018-08-11T02:30:14.948Z,16.60
2018-08-11T02:30:49.344Z,16.70
2018-08-11T02:31:23.564Z,16.60
2018-08-11T02:31:57.418Z,16.60
2018-08-11T02:32:31.292Z,16.70
2018-08-11T02:33:05.272Z,16.70
2018-08-11T02:33:39.150Z,16.70
2018-08-11T02:34:13.489Z,16.70
2018-08-11T02:34:47.800Z,16.70
2018-08-11T02:35:22.014Z,16.70
2018-08-11T02:35:56.206Z,16.70
2018-08-11T02:36:30.380Z,16.70
2018-08-11T02:37:04.868Z,16.70
2018-08-11T02:37:38.908Z,16.70
2018-08-11T02:38:13.462Z,16.70
2018-08-11T02:38:47.660Z,16.70
2018-08-11T02:39:21.908Z,16.70
2018-08-11T02:39:55.779Z,16.70
2018-08-11T02:40:29.952Z,16.70
2018-08-11T02:41:03.812Z,16.70
2018-08-11T02:41:37.926Z,16.80
2018-08-11T02:42:11.766Z,16.80
2018-08-11T02:42:45.625Z,16.80
2018-08-11T02:43:19.492Z,16.80
2018-08-11T02:43:53.728Z,16.80
2018-08-11T02:44:27.940Z,16.80
2018-08-11T02:45:01.792Z,16.80
2018-08-11T02:45:35.624Z,16.80
2018-08-11T02:46:09.829Z,16.80
2018-08-11T02:46:43.720Z,16.80
2018-08-11T02:47:17.576Z,16.80
2018-08-11T02:47:51.408Z,16.80
2018-08-11T02:48:25.325Z,16.80
2018-08-11T02:48:59.154Z,16.80
2018-08-11T02:49:33.392Z,16.80
2018-08-11T02:50:09.036Z,16.80
2018-08-11T02:50:43.428Z,16.80
2018-08-11T02:51:17.600Z,16.80
2018-08-11T02:51:51.478Z,16.80
2018-08-11T02:52:25.685Z,16.80
2018-08-11T02:52:59.608Z,16.80
2018-08-11T02:53:33.846Z,16.80
2018-08-11T02:54:08.066Z,16.80
2018-08-11T02:54:41.929Z,16.80
2018-08-11T02:55:15.821Z,16.80
2018-08-11T02:55:49.680Z,16.80
2018-08-11T02:56:23.549Z,16.80
2018-08-11T02:56:57.402Z,16.80
2018-08-11T02:57:31.258Z,16.80
2018-08-11T02:58:05.260Z,16.80
2018-08-11T02:58:39.666Z,16.80
2018-08-11T02:59:13.868Z,16.90
2018-08-11T02:59:47.824Z,16.90
2018-08-11T03:00:21.682Z,16.90
2018-08-11T03:00:55.516Z,16.90
2018-08-11T03:01:30.263Z,16.90
2018-08-11T03:02:04.140Z,16.90
2018-08-11T03:02:38.398Z,16.90
2018-08-11T03:03:12.755Z,16.90
2018-08-11T03:03:46.964Z,16.90
2018-08-11T03:04:21.170Z,16.90
2018-08-11T03:04:55.424Z,16.90
2018-08-11T03:05:29.300Z,16.90
2018-08-11T03:06:03.506Z,16.90
2018-08-11T03:06:37.700Z,16.90
2018-08-11T03:07:11.902Z,16.90
2018-08-11T03:07:45.762Z,16.90
2018-08-11T03:08:19.637Z,16.90
2018-08-11T03:08:53.484Z,16.90
2018-08-11T03:09:27.688Z,16.90
2018-08-11T03:10:02.241Z,16.90
2018-08-11T03:10:36.090Z,16.90
2018-08-11T03:11:09.955Z,16.90
2018-08-11T03:11:43.772Z,16.90
2018-08-11T03:12:18.034Z,16.80
2018-08-11T03:12:51.878Z,16.90
2018-08-11T03:13:26.780Z,16.80
2018-08-11T03:14:00.623Z,16.80
2018-08-11T03:14:34.618Z,16.80
2018-08-11T03:15:10.025Z,16.80
2018-08-11T03:15:44.238Z,16.80
2018-08-11T03:16:18.432Z,16.80
2018-08-11T03:16:52.635Z,16.80
2018-08-11T03:17:26.818Z,16.80
2018-08-11T03:18:00.716Z,16.80
2018-08-11T03:18:34.592Z,16.80
2018-08-11T03:19:08.437Z,16.80
2018-08-11T03:19:42.296Z,16.80
2018-08-11T03:20:16.482Z,16.80
2018-08-11T03:20:50.686Z,16.80
2018-08-11T03:21:24.568Z,16.70
2018-08-11T03:21:58.786Z,16.80
2018-08-11T03:22:32.658Z,16.70
2018-08-11T03:23:06.647Z,16.70
2018-08-11T03:23:40.892Z,16.70
2018-08-11T03:24:14.750Z,16.70
2018-08-11T03:24:49.344Z,16.70
2018-08-11T03:25:23.222Z,16.70
2018-08-11T03:25:57.120Z,16.70
2018-08-11T03:26:30.972Z,16.70
2018-08-11T03:27:05.204Z,16.70
2018-08-11T03:27:39.368Z,16.70
2018-08-11T03:28:13.260Z,16.70
2018-08-11T03:28:47.138Z,16.70
2018-08-11T03:29:21.332Z,16.70
2018-08-11T03:29:55.167Z,16.70
2018-08-11T03:30:29.393Z,16.70
2018-08-11T03:31:03.269Z,16.60
2018-08-11T03:31:37.168Z,16.70
2018-08-11T03:32:11.271Z,16.60
2018-08-11T03:32:45.448Z,16.60
2018-08-11T03:33:19.668Z,16.60
2018-08-11T03:33:53.872Z,16.60
2018-08-11T03:34:28.083Z,16.60
2018-08-11T03:35:01.999Z,16.60
2018-08-11T03:35:35.879Z,16.60
2018-08-11T03:36:09.759Z,16.60
2018-08-11T03:36:43.605Z,16.60
2018-08-11T03:37:17.472Z,16.60
2018-08-11T03:37:51.339Z,16.60
2018-08-11T03:38:25.186Z,16.60
2018-08-11T03:38:59.051Z,16.60
2018-08-11T03:39:32.916Z,16.60
2018-08-11T03:40:08.339Z,16.60
2018-08-11T03:40:42.558Z,16.60
2018-08-11T03:41:16.445Z,16.60
2018-08-11T03:41:50.310Z,16.60
2018-08-11T03:42:24.476Z,16.60
2018-08-11T03:42:58.715Z,16.60
2018-08-11T03:43:32.586Z,16.60
2018-08-11T03:44:06.606Z,16.60
2018-08-11T03:44:41.128Z,16.60
2018-08-11T03:45:15.013Z,16.60
2018-08-11T03:45:48.881Z,16.60
2018-08-11T03:46:23.088Z,16.60
2018-08-11T03:46:56.920Z,16.60
2018-08-11T03:47:30.805Z,16.60
2018-08-11T03:48:04.839Z,16.60
2018-08-11T03:48:38.738Z,16.60
2018-08-11T03:49:12.576Z,16.60
2018-08-11T03:49:47.132Z,16.60
2018-08-11T03:50:21.721Z,16.60
2018-08-11T03:50:55.593Z,16.60
2018-08-11T03:51:29.492Z,16.60
2018-08-11T03:52:03.346Z,16.50
2018-08-11T03:52:37.879Z,16.50
2018-08-11T03:53:12.218Z,16.50
2018-08-11T03:53:46.422Z,16.50
2018-08-11T03:54:20.266Z,16.50
2018-08-11T03:54:54.444Z,16.50
2018-08-11T03:55:28.772Z,16.50
2018-08-11T03:56:03.044Z,16.50
2018-08-11T03:56:37.250Z,16.50
2018-08-11T03:57:11.136Z,16.50
2018-08-11T03:57:45.027Z,16.50
2018-08-11T03:58:18.952Z,16.50
2018-08-11T03:58:53.151Z,16.50
2018-08-11T03:59:27.338Z,16.50
2018-08-11T04:00:01.716Z,16.50
2018-08-11T04:00:35.628Z,16.50
2018-08-11T04:01:09.882Z,16.50
2018-08-11T04:01:43.774Z,16.50
2018-08-11T04:02:17.626Z,16.50
2018-08-11T04:02:51.496Z,16.60
2018-08-11T04:03:25.344Z,16.60
2018-08-11T04:03:59.184Z,16.60
2018-08-11T04:04:33.028Z,16.60
2018-08-11T04:05:06.920Z,16.60
2018-08-11T04:05:40.742Z,16.60
2018-08-11T04:06:14.965Z,16.60
2018-08-11T04:06:48.860Z,16.70
2018-08-11T04:07:22.718Z,16.70
2018-08-11T04:07:57.028Z,16.70
2018-08-11T04:08:31.247Z,16.70
2018-08-11T04:09:07.803Z,16.70
2018-08-11T04:09:42.003Z,16.70
2018-08-11T04:10:15.898Z,16.80
2018-08-11T04:10:49.873Z,16.80
2018-08-11T04:11:24.080Z,16.80
2018-08-11T04:11:58.312Z,16.90
2018-08-11T04:12:32.178Z,16.90
2018-08-11T04:13:06.354Z,16.90
2018-08-11T04:13:40.306Z,16.90
2018-08-11T04:14:14.198Z,17.00
2018-08-11T04:14:48.083Z,17.00
2018-08-11T04:15:22.278Z,17.00
2018-08-11T04:15:56.104Z,17.10
2018-08-11T04:16:30.011Z,17.10
2018-08-11T04:17:03.876Z,17.10
2018-08-11T04:17:41.778Z,17.10
2018-08-11T04:18:15.643Z,17.20
2018-08-11T04:18:49.826Z,17.20
2018-08-11T04:19:23.698Z,17.20
2018-08-11T04:19:57.556Z,17.20
2018-08-11T04:20:31.764Z,17.20
2018-08-11T04:21:05.975Z,17.30
2018-08-11T04:21:40.160Z,17.30
2018-08-11T04:22:14.006Z,17.30
2018-08-11T04:22:47.986Z,17.30
2018-08-11T04:23:21.892Z,17.40
2018-08-11T04:23:55.766Z,17.40
2018-08-11T04:24:29.622Z,17.40
2018-08-11T04:25:03.494Z,17.40
2018-08-11T04:25:37.719Z,17.40
2018-08-11T04:26:11.602Z,17.40
2018-08-11T04:26:45.826Z,17.40
2018-08-11T04:27:19.656Z,17.40
2018-08-11T04:27:53.852Z,17.40
2018-08-11T04:28:27.708Z,17.40
2018-08-11T04:29:01.972Z,17.50
2018-08-11T04:29:35.840Z,17.50
2018-08-11T04:30:11.066Z,17.50
2018-08-11T04:30:44.918Z,17.50
2018-08-11T04:31:18.820Z,17.50
2018-08-11T04:31:52.714Z,17.50
2018-08-11T04:32:26.908Z,17.50
2018-08-11T04:33:00.766Z,17.50
2018-08-11T04:33:34.620Z,17.50
2018-08-11T04:34:08.499Z,17.50
2018-08-11T04:34:42.690Z,17.50
2018-08-11T04:35:16.872Z,17.50
2018-08-11T04:35:51.063Z,17.50
2018-08-11T04:36:25.258Z,17.50
2018-08-11T04:36:59.488Z,17.60
2018-08-11T04:37:33.335Z,17.60
2018-08-11T04:38:07.523Z,17.60
2018-08-11T04:38:41.424Z,17.60
2018-08-11T04:39:15.640Z,17.50
2018-08-11T04:39:49.459Z,17.60
2018-08-11T04:40:23.288Z,17.60
2018-08-11T04:40:57.146Z,17.60
2018-08-11T04:41:30.998Z,17.60
2018-08-11T04:42:05.246Z,17.60
2018-08-11T04:42:39.268Z,17.60
2018-08-11T04:43:13.460Z,17.60
2018-08-11T04:43:47.298Z,17.60
2018-08-11T04:44:21.474Z,17.60
2018-08-11T04:44:55.636Z,17.60
2018-08-11T04:45:29.469Z,17.60
2018-08-11T04:46:03.672Z,17.70
2018-08-11T04:46:37.854Z,17.60
2018-08-11T04:47:12.202Z,17.70
2018-08-11T04:47:46.069Z,17.70
2018-08-11T04:48:20.265Z,17.70
2018-08-11T04:48:54.482Z,17.60
2018-08-11T04:49:28.666Z,17.60
2018-08-11T04:50:02.828Z,17.70
2018-08-11T04:50:36.731Z,17.60
2018-08-11T04:51:10.612Z,17.70
2018-08-11T04:51:44.512Z,17.60
2018-08-11T04:52:18.408Z,17.70
2018-08-11T04:52:52.270Z,17.70
2018-08-11T04:53:26.124Z,17.70
2018-08-11T04:53:59.988Z,17.70
2018-08-11T04:54:34.116Z,17.70
2018-08-11T04:55:07.961Z,17.70
2018-08-11T04:55:41.887Z,17.70
2018-08-11T04:56:16.077Z,17.70
2018-08-11T04:56:49.909Z,17.70
2018-08-11T04:57:23.794Z,17.70
2018-08-11T04:57:57.671Z,17.80
2018-08-11T04:58:31.526Z,17.80
2018-08-11T04:59:05.732Z,17.80
2018-08-11T04:59:39.626Z,17.80
2018-08-11T05:00:14.202Z,17.80
2018-08-11T05:00:48.181Z,17.80
2018-08-11T05:01:22.197Z,17.80
2018-08-11T05:01:56.204Z,17.80
2018-08-11T05:02:30.395Z,17.80
2018-08-11T05:03:04.600Z,17.80
2018-08-11T05:03:38.454Z,17.80
2018-08-11T05:04:12.956Z,17.90
2018-08-11T05:04:47.165Z,17.90
2018-08-11T05:05:21.021Z,17.80
2018-08-11T05:05:54.910Z,17.90
2018-08-11T05:06:28.788Z,17.90
2018-08-11T05:07:02.641Z,17.90
2018-08-11T05:07:36.812Z,17.90
2018-08-11T05:08:11.007Z,17.90
2018-08-11T05:08:44.847Z,17.90
2018-08-11T05:09:18.724Z,17.90
2018-08-11T05:09:52.556Z,17.90
2018-08-11T05:10:26.459Z,18.00
2018-08-11T05:11:00.292Z,18.00
2018-08-11T05:11:34.476Z,18.00
2018-08-11T05:12:08.341Z,18.00
2018-08-11T05:12:42.230Z,18.10
2018-08-11T05:13:16.113Z,18.10
2018-08-11T05:13:49.952Z,18.10
2018-08-11T05:14:23.849Z,18.20
2018-08-11T05:14:57.714Z,18.20
2018-08-11T05:15:31.636Z,18.40
2018-08-11T05:16:05.620Z,18.50
2018-08-11T05:16:46.040Z,18.60
2018-08-11T05:17:19.875Z,18.70
2018-08-11T05:17:54.045Z,18.80
2018-08-11T05:18:27.888Z,18.80
2018-08-11T05:19:02.074Z,18.80
2018-08-11T05:19:35.905Z,18.90
2018-08-11T05:20:09.742Z,18.90
2018-08-11T05:20:43.899Z,18.90
2018-08-11T05:21:18.228Z,18.90
2018-08-11T05:21:52.091Z,19.00
2018-08-11T05:22:26.297Z,19.10
2018-08-11T05:23:00.223Z,19.10
2018-08-11T05:23:34.062Z,19.10
2018-08-11T05:24:08.349Z,19.20
2018-08-11T05:24:42.181Z,19.30
2018-08-11T05:25:16.027Z,19.30
2018-08-11T05:25:49.920Z,19.40
2018-08-11T05:26:24.347Z,19.40
2018-08-11T05:26:58.696Z,19.50
2018-08-11T05:27:32.554Z,19.50
2018-08-11T05:28:07.235Z,19.50
2018-08-11T05:28:41.316Z,19.50
2018-08-11T05:29:15.165Z,19.50
2018-08-11T05:29:49.057Z,19.50
2018-08-11T05:30:22.904Z,19.50
2018-08-11T05:30:57.414Z,19.50
2018-08-11T05:31:31.611Z,19.60
2018-08-11T05:32:05.459Z,19.60
2018-08-11T05:32:39.322Z,19.60
2018-08-11T05:33:13.277Z,19.70
2018-08-11T05:33:47.306Z,19.70
2018-08-11T05:34:21.119Z,19.70
2018-08-11T05:34:55.772Z,19.70
2018-08-11T05:35:29.862Z,19.70
2018-08-11T05:36:04.054Z,19.80
2018-08-11T05:36:38.281Z,19.80
2018-08-11T05:37:12.384Z,19.80
2018-08-11T05:37:46.249Z,19.80
2018-08-11T05:38:20.119Z,19.80
2018-08-11T05:38:54.324Z,19.80
2018-08-11T05:39:28.485Z,19.70
2018-08-11T05:40:02.346Z,19.70
2018-08-11T05:40:36.549Z,19.70
2018-08-11T05:41:10.748Z,19.60
2018-08-11T05:41:44.737Z,19.60
2018-08-11T05:42:19.147Z,19.60
2018-08-11T05:42:53.682Z,19.60
2018-08-11T05:43:27.916Z,19.50
2018-08-11T05:44:01.757Z,19.50
2018-08-11T05:44:35.633Z,19.50
2018-08-11T05:45:09.583Z,19.40
2018-08-11T05:45:43.769Z,19.40
2018-08-11T05:46:17.627Z,19.40
2018-08-11T05:46:51.471Z,19.40
2018-08-11T05:47:25.500Z,19.30
2018-08-11T05:47:59.367Z,19.30
2018-08-11T05:48:33.258Z,19.30
2018-08-11T05:49:07.390Z,19.30
2018-08-11T05:49:41.569Z,19.30
2018-08-11T05:50:16.076Z,19.30
2018-08-11T05:50:49.953Z,19.30
2018-08-11T05:51:24.149Z,19.30
2018-08-11T05:51:58.067Z,19.30
2018-08-11T05:52:32.261Z,19.30
2018-08-11T05:53:06.434Z,19.30
2018-08-11T05:53:40.339Z,19.20
2018-08-11T05:54:14.203Z,19.20
2018-08-11T05:54:48.437Z,19.30
2018-08-11T05:55:22.287Z,19.20
2018-08-11T05:55:56.167Z,19.30
2018-08-11T05:56:30.005Z,19.30
2018-08-11T05:57:03.853Z,19.30
2018-08-11T05:57:37.706Z,19.30
2018-08-11T05:58:11.553Z,19.30
2018-08-11T05:58:45.460Z,19.30
2018-08-11T05:59:19.633Z,19.30
2018-08-11T05:59:53.571Z,19.30
2018-08-11T06:00:27.815Z,19.30
2018-08-11T06:01:01.997Z,19.30
2018-08-11T06:01:36.202Z,19.30
2018-08-11T06:02:10.747Z,19.40
2018-08-11T06:02:44.625Z,19.40
2018-08-11T06:03:18.941Z,19.40
2018-08-11T06:03:53.198Z,19.50
2018-08-11T06:04:27.263Z,19.50
2018-08-11T06:05:01.121Z,19.50
2018-08-11T06:05:35.711Z,19.50
2018-08-11T06:06:09.939Z,19.50
2018-08-11T06:06:44.089Z,19.60
2018-08-11T06:07:18.258Z,19.50
2018-08-11T06:07:52.475Z,19.60
2018-08-11T06:08:26.379Z,19.60
2018-08-11T06:09:00.301Z,19.60
2018-08-11T06:09:34.215Z,19.60
2018-08-11T06:10:09.422Z,19.60
2018-08-11T06:10:43.325Z,19.60
2018-08-11T06:11:17.559Z,19.60
2018-08-11T06:11:51.797Z,19.60
2018-08-11T06:12:25.723Z,19.70
2018-08-11T06:12:59.629Z,19.70
2018-08-11T06:13:33.979Z,19.70
2018-08-11T06:14:09.356Z,19.70
2018-08-11T06:14:43.212Z,19.80
2018-08-11T06:15:17.183Z,19.70
2018-08-11T06:15:51.721Z,19.80
2018-08-11T06:16:25.585Z,19.80
2018-08-11T06:17:00.463Z,19.80
2018-08-11T06:40:27.818Z,19.80
2018-08-11T06:41:02.765Z,20.60
2018-08-11T06:41:37.753Z,20.60
2018-08-11T06:42:11.620Z,20.60
2018-08-11T06:42:45.489Z,20.70
2018-08-11T06:43:20.075Z,20.70
2018-08-11T06:43:54.003Z,20.70
2018-08-11T06:44:27.883Z,20.70
2018-08-11T06:45:01.756Z,20.70
2018-08-11T06:45:35.957Z,20.80
2018-08-11T06:46:10.159Z,20.80
2018-08-11T06:46:44.106Z,20.80
2018-08-11T06:47:18.098Z,20.80
2018-08-11T06:47:51.967Z,20.80
2018-08-11T06:48:25.861Z,20.80
2018-08-11T06:48:59.739Z,20.80
2018-08-11T06:49:33.593Z,20.80
2018-08-11T06:50:07.429Z,20.90
2018-08-11T06:50:41.711Z,20.90
2018-08-11T06:51:18.933Z,20.90
2018-08-11T06:51:52.807Z,20.90
2018-08-11T06:52:27.042Z,20.90
2018-08-11T06:53:01.290Z,20.90
2018-08-11T06:53:35.485Z,20.90
2018-08-11T06:54:10.012Z,20.90
2018-08-11T06:54:43.854Z,20.90
2018-08-11T06:55:18.808Z,20.90
2018-08-11T06:55:52.726Z,20.90
2018-08-11T06:56:26.629Z,20.90
2018-08-11T06:57:00.553Z,20.90
2018-08-11T06:57:34.589Z,20.90
2018-08-11T06:58:08.459Z,21.00
2018-08-11T06:58:42.309Z,21.00
2018-08-11T06:59:16.174Z,21.00
2018-08-11T06:59:50.023Z,21.00
2018-08-11T07:00:24.229Z,21.00
2018-08-11T07:00:58.138Z,21.10
2018-08-11T07:01:32.081Z,21.10
2018-08-11T07:02:06.463Z,21.10
2018-08-11T07:02:40.685Z,21.10
2018-08-11T07:03:14.540Z,21.10
2018-08-11T07:03:48.781Z,21.20
2018-08-11T07:04:22.693Z,21.20
2018-08-11T07:04:56.613Z,21.20
2018-08-11T07:05:30.471Z,21.20
2018-08-11T07:06:04.708Z,21.20
2018-08-11T07:06:38.673Z,21.20
2018-08-11T07:07:12.729Z,21.20
2018-08-11T07:07:46.594Z,21.20
2018-08-11T07:08:20.472Z,21.20
2018-08-11T07:08:54.582Z,21.20
2018-08-11T07:09:28.435Z,21.20
2018-08-11T07:10:02.523Z,21.20
2018-08-11T07:10:36.416Z,21.20
2018-08-11T07:11:10.350Z,21.20
2018-08-11T07:11:44.257Z,21.10
2018-08-11T07:12:18.219Z,21.10
2018-08-11T07:12:52.107Z,21.10
2018-08-11T07:13:26.027Z,21.10
2018-08-11T07:13:59.871Z,21.10
2018-08-11T07:14:33.739Z,21.10
2018-08-11T07:15:07.939Z,21.10
2018-08-11T07:15:42.127Z,21.00
2018-08-11T07:16:16.020Z,21.00
2018-08-11T07:16:50.251Z,21.00
2018-08-11T07:17:24.437Z,21.00
2018-08-11T07:17:58.295Z,21.00
2018-08-11T07:18:32.808Z,21.00
2018-08-11T07:19:07.481Z,21.00
2018-08-11T07:19:41.347Z,21.00
2018-08-11T07:20:15.961Z,21.00
2018-08-11T07:20:50.315Z,21.10
2018-08-11T07:21:24.346Z,21.10
2018-08-11T07:21:58.382Z,21.20
2018-08-11T07:22:32.233Z,21.20
2018-08-11T07:23:06.081Z,21.20
2018-08-11T07:23:40.024Z,21.20
2018-08-11T07:24:13.883Z,21.30
2018-08-11T07:24:48.041Z,21.30
2018-08-11T07:25:22.207Z,21.30
2018-08-11T07:25:56.769Z,21.30
2018-08-11T07:26:30.812Z,21.40
2018-08-11T07:27:05.413Z,21.40
2018-08-11T07:27:39.308Z,21.50
2018-08-11T07:28:13.178Z,21.50
2018-08-11T07:28:47.039Z,21.50
2018-08-11T07:29:20.925Z,21.50
2018-08-11T07:29:55.068Z,21.50
2018-08-11T07:30:29.277Z,21.60
2018-08-11T07:31:03.156Z,21.60
2018-08-11T07:31:37.351Z,21.60
2018-08-11T07:32:11.882Z,21.60
2018-08-11T07:32:46.084Z,21.60
2018-08-11T07:33:19.938Z,21.60
2018-08-11T07:33:54.351Z,21.60
2018-08-11T07:34:28.231Z,21.60
2018-08-11T07:35:02.638Z,21.50
2018-08-11T07:35:37.047Z,21.50
2018-08-11T07:36:11.200Z,21.50
2018-08-11T07:36:45.348Z,21.50
2018-08-11T07:37:19.353Z,21.50
2018-08-11T07:37:53.583Z,21.50
2018-08-11T07:38:28.054Z,21.40
2018-08-11T07:39:02.309Z,21.40
2018-08-11T07:39:36.445Z,21.30
2018-08-11T07:40:10.519Z,21.30
2018-08-11T07:40:44.731Z,21.30
2018-08-11T07:41:18.643Z,21.30
2018-08-11T07:41:52.901Z,21.20
2018-08-11T07:42:26.783Z,21.20
2018-08-11T07:43:00.710Z,21.10